createdAt,value
2019-03-06T00:00:33.461Z,3.13
2019-03-06T00:01:35.625Z,3.16
2019-03-06T00:02:33.424Z,3.16
2019-03-06T00:03:33.408Z,3.17
2019-03-06T00:04:33.406Z,3.16
2019-03-06T00:05:33.393Z,3.13
2019-03-06T00:06:33.402Z,3.12
2019-03-06T00:07:33.367Z,2.97
2019-03-06T00:08:33.350Z,2.90
2019-03-06T00:09:33.335Z,2.97
2019-03-06T00:10:33.337Z,3.01
2019-03-06T00:11:33.339Z,2.99
2019-03-06T00:12:33.370Z,3.04
2019-03-06T00:13:33.304Z,2.98
2019-03-06T00:14:33.290Z,2.94
2019-03-06T00:15:33.278Z,2.94
2019-03-06T00:16:33.264Z,2.95
2019-03-06T00:17:33.279Z,2.98
2019-03-06T00:18:33.249Z,2.99
2019-03-06T00:19:33.236Z,3.01
2019-03-06T00:20:33.222Z,2.92
2019-03-06T00:21:33.212Z,2.84
2019-03-06T00:22:33.224Z,2.87
2019-03-06T00:23:33.203Z,2.84
2019-03-06T00:24:33.182Z,2.80
2019-03-06T00:25:33.173Z,2.83
2019-03-06T00:26:33.155Z,2.90
2019-03-06T00:27:33.145Z,2.80
2019-03-06T00:28:33.161Z,2.80
2019-03-06T00:29:33.129Z,2.84
2019-03-06T00:30:33.155Z,2.84
2019-03-06T00:31:33.110Z,2.87
2019-03-06T00:32:33.095Z,2.86
2019-03-06T00:33:33.086Z,2.90
2019-03-06T00:34:33.103Z,2.84
2019-03-06T00:35:33.074Z,2.92
2019-03-06T00:36:33.052Z,2.92
2019-03-06T00:37:33.045Z,2.83
2019-03-06T00:38:33.034Z,2.87
2019-03-06T00:39:33.023Z,2.87
2019-03-06T00:40:33.031Z,2.92
2019-03-06T00:41:33.010Z,2.80
2019-03-06T00:42:32.995Z,2.81
2019-03-06T00:43:32.979Z,2.83
2019-03-06T00:44:33.010Z,2.97
2019-03-06T00:45:32.951Z,2.94
2019-03-06T00:46:32.968Z,2.92
2019-03-06T00:47:32.942Z,2.95
2019-03-06T00:48:32.924Z,2.94
2019-03-06T00:49:32.910Z,2.98
2019-03-06T00:50:32.897Z,2.97
2019-03-06T00:51:32.909Z,2.92
2019-03-06T00:52:32.908Z,2.95
2019-03-06T00:53:32.868Z,2.97
2019-03-06T00:54:32.865Z,2.97
2019-03-06T00:55:32.864Z,2.92
2019-03-06T00:56:32.839Z,3.02
2019-03-06T00:57:32.835Z,2.94
2019-03-06T00:58:32.861Z,2.94
2019-03-06T00:59:32.805Z,2.97
2019-03-06T01:00:32.798Z,2.98
2019-03-06T01:01:32.789Z,2.98
2019-03-06T01:02:32.780Z,2.98
2019-03-06T01:03:32.786Z,2.90
2019-03-06T01:04:32.782Z,2.97
2019-03-06T01:05:32.741Z,2.92
2019-03-06T01:06:32.728Z,2.90
2019-03-06T01:07:32.717Z,2.81
2019-03-06T01:08:32.744Z,2.80
2019-03-06T01:09:32.701Z,2.89
2019-03-06T01:10:32.682Z,2.87
2019-03-06T01:11:32.706Z,2.80
2019-03-06T01:12:32.662Z,2.83
2019-03-06T01:13:32.689Z,2.86
2019-03-06T01:14:32.650Z,2.84
2019-03-06T01:15:32.641Z,2.65
2019-03-06T01:16:32.615Z,2.76
2019-03-06T01:17:32.604Z,2.73
2019-03-06T01:18:32.619Z,2.74
2019-03-06T01:19:32.583Z,2.76
2019-03-06T01:20:32.618Z,2.56
2019-03-06T01:21:32.585Z,2.65
2019-03-06T01:22:32.566Z,2.66
2019-03-06T01:23:32.562Z,2.69
2019-03-06T01:24:32.530Z,2.69
2019-03-06T01:25:32.517Z,2.68
2019-03-06T01:26:32.515Z,2.63
2019-03-06T01:27:32.504Z,2.62
2019-03-06T01:28:32.514Z,2.58
2019-03-06T01:29:32.475Z,2.66
2019-03-06T01:30:32.471Z,2.63
2019-03-06T01:31:32.455Z,2.63
2019-03-06T01:32:32.452Z,2.68
2019-03-06T01:33:32.448Z,2.68
2019-03-06T01:34:32.448Z,2.65
2019-03-06T01:35:32.426Z,2.69
2019-03-06T01:36:32.407Z,2.77
2019-03-06T01:37:32.399Z,2.84
2019-03-06T01:38:32.380Z,2.80
2019-03-06T01:39:32.399Z,2.83
2019-03-06T01:40:32.366Z,2.84
2019-03-06T01:41:32.363Z,2.97
2019-03-06T01:42:32.337Z,2.86
2019-03-06T01:43:32.334Z,2.87
2019-03-06T01:44:32.325Z,2.89
2019-03-06T01:45:32.333Z,2.97
2019-03-06T01:46:32.321Z,2.97
2019-03-06T01:47:32.322Z,2.98
2019-03-06T01:48:32.288Z,2.98
2019-03-06T01:49:32.262Z,3.04
2019-03-06T01:50:32.282Z,3.05
2019-03-06T01:51:32.244Z,3.04
2019-03-06T01:52:32.238Z,3.07
2019-03-06T01:53:32.236Z,3.17
2019-03-06T01:54:32.216Z,3.15
2019-03-06T01:55:32.231Z,3.19
2019-03-06T01:56:32.220Z,3.13
2019-03-06T01:57:32.180Z,3.13
2019-03-06T01:58:32.179Z,3.08
2019-03-06T01:59:32.166Z,3.07
2019-03-06T02:00:32.146Z,3.08
2019-03-06T02:01:32.167Z,3.05
2019-03-06T02:02:32.128Z,2.97
2019-03-06T02:03:32.121Z,2.99
2019-03-06T02:04:32.101Z,2.97
2019-03-06T02:05:32.112Z,2.99
2019-03-06T02:06:32.081Z,2.94
2019-03-06T02:07:32.097Z,2.97
2019-03-06T02:08:32.065Z,2.97
2019-03-06T02:09:32.062Z,2.97
2019-03-06T02:10:32.038Z,2.90
2019-03-06T02:11:32.046Z,2.90
2019-03-06T02:12:32.053Z,2.86
2019-03-06T02:13:32.012Z,2.90
2019-03-06T02:14:32.003Z,2.86
2019-03-06T02:15:32.012Z,2.84
2019-03-06T02:16:31.975Z,2.86
2019-03-06T02:17:31.979Z,2.83
2019-03-06T02:18:32.048Z,2.84
2019-03-06T02:19:31.948Z,2.84
2019-03-06T02:20:31.938Z,2.87
2019-03-06T02:21:31.936Z,2.90
2019-03-06T02:22:31.910Z,2.92
2019-03-06T02:23:31.926Z,2.83
2019-03-06T02:24:31.889Z,2.86
2019-03-06T02:25:31.883Z,2.83
2019-03-06T02:26:31.875Z,2.87
2019-03-06T02:27:31.859Z,2.86
2019-03-06T02:28:31.848Z,2.84
2019-03-06T02:29:31.869Z,2.81
2019-03-06T02:30:31.824Z,2.84
2019-03-06T02:31:31.823Z,2.81
2019-03-06T02:32:31.825Z,2.84
2019-03-06T02:33:31.797Z,2.92
2019-03-06T02:34:31.782Z,2.77
2019-03-06T02:35:31.812Z,2.84
2019-03-06T02:36:31.759Z,2.83
2019-03-06T02:37:31.808Z,2.89
2019-03-06T02:38:31.761Z,2.86
2019-03-06T02:39:31.727Z,2.86
2019-03-06T02:40:31.726Z,2.80
2019-03-06T02:41:31.743Z,2.80
2019-03-06T02:42:31.695Z,2.83
2019-03-06T02:43:31.704Z,2.89
2019-03-06T02:44:31.673Z,2.90
2019-03-06T02:45:31.674Z,2.80
2019-03-06T02:46:31.654Z,2.87
2019-03-06T02:47:31.666Z,2.89
2019-03-06T02:48:31.633Z,2.84
2019-03-06T02:49:31.633Z,2.86
2019-03-06T02:50:31.615Z,2.97
2019-03-06T02:51:31.603Z,2.99
2019-03-06T02:52:31.632Z,2.97
2019-03-06T02:53:31.592Z,3.01
2019-03-06T02:54:31.575Z,3.13
2019-03-06T02:55:31.582Z,3.19
2019-03-06T02:56:31.545Z,3.23
2019-03-06T02:57:31.561Z,3.25
2019-03-06T02:58:31.536Z,3.34
2019-03-06T02:59:31.522Z,3.33
2019-03-06T03:00:31.512Z,3.44
2019-03-06T03:01:31.496Z,3.42
2019-03-06T03:02:31.496Z,3.35
2019-03-06T03:03:31.500Z,3.33
2019-03-06T03:04:31.466Z,3.39
2019-03-06T03:05:31.459Z,3.37
2019-03-06T03:06:31.436Z,3.41
2019-03-06T03:07:31.444Z,3.41
2019-03-06T03:08:31.422Z,3.37
2019-03-06T03:09:31.430Z,3.44
2019-03-06T03:10:31.401Z,3.44
2019-03-06T03:11:31.388Z,3.42
2019-03-06T03:12:31.375Z,3.42
2019-03-06T03:13:31.374Z,3.41
2019-03-06T03:14:31.385Z,3.45
2019-03-06T03:15:31.345Z,3.45
2019-03-06T03:16:31.330Z,3.46
2019-03-06T03:17:31.326Z,3.35
2019-03-06T03:18:31.326Z,3.49
2019-03-06T03:19:31.327Z,3.46
2019-03-06T03:20:31.296Z,3.41
2019-03-06T03:21:31.292Z,3.41
2019-03-06T03:22:31.280Z,3.50
2019-03-06T03:23:31.267Z,3.34
2019-03-06T03:24:31.253Z,3.33
2019-03-06T03:25:31.270Z,3.37
2019-03-06T03:26:31.233Z,3.34
2019-03-06T03:27:31.308Z,3.34
2019-03-06T03:28:31.219Z,3.35
2019-03-06T03:29:31.205Z,3.26
2019-03-06T03:30:31.217Z,3.23
2019-03-06T03:31:31.201Z,3.31
2019-03-06T03:32:31.179Z,3.20
2019-03-06T03:33:31.159Z,3.26
2019-03-06T03:34:31.158Z,3.20
2019-03-06T03:35:31.155Z,3.25
2019-03-06T03:36:31.148Z,3.28
2019-03-06T03:37:31.135Z,3.17
2019-03-06T03:38:31.113Z,3.13
2019-03-06T03:39:31.094Z,3.22
2019-03-06T03:40:31.090Z,3.22
2019-03-06T03:41:31.067Z,3.07
2019-03-06T03:42:31.089Z,3.19
2019-03-06T03:43:31.060Z,3.20
2019-03-06T03:44:31.037Z,3.12
2019-03-06T03:45:31.031Z,3.15
2019-03-06T03:46:31.019Z,3.07
2019-03-06T03:47:31.001Z,2.98
2019-03-06T03:48:31.008Z,3.04
2019-03-06T03:49:30.993Z,2.94
2019-03-06T03:50:30.971Z,2.80
2019-03-06T03:51:30.967Z,2.89
2019-03-06T03:52:30.977Z,2.86
2019-03-06T03:53:30.952Z,2.94
2019-03-06T03:54:30.954Z,2.89
2019-03-06T03:55:30.926Z,2.80
2019-03-06T03:56:30.907Z,2.80
2019-03-06T03:57:30.899Z,2.86
2019-03-06T03:58:30.894Z,2.90
2019-03-06T03:59:30.904Z,2.84
2019-03-06T04:00:30.867Z,2.81
2019-03-06T04:01:30.862Z,2.83
2019-03-06T04:02:30.848Z,2.80
2019-03-06T04:03:30.835Z,2.89
2019-03-06T04:04:30.828Z,2.86
2019-03-06T04:05:30.843Z,2.84
2019-03-06T04:06:30.813Z,2.95
2019-03-06T04:07:30.820Z,2.99
2019-03-06T04:08:30.778Z,3.12
2019-03-06T04:09:30.768Z,3.15
2019-03-06T04:10:30.763Z,3.15
2019-03-06T04:11:30.891Z,3.25
2019-03-06T04:12:30.736Z,3.19
2019-03-06T04:13:30.738Z,3.26
2019-03-06T04:14:30.730Z,3.15
2019-03-06T04:15:30.712Z,3.16
2019-03-06T04:16:30.696Z,3.23
2019-03-06T04:17:30.713Z,3.26
2019-03-06T04:18:30.673Z,3.25
2019-03-06T04:19:30.662Z,3.28
2019-03-06T04:20:30.659Z,3.15
2019-03-06T04:21:30.643Z,3.19
2019-03-06T04:22:30.635Z,3.22
2019-03-06T04:23:30.697Z,3.19
2019-03-06T04:24:30.609Z,3.23
2019-03-06T04:25:30.607Z,3.22
2019-03-06T04:26:30.603Z,3.19
2019-03-06T04:27:30.593Z,3.20
2019-03-06T04:28:30.595Z,3.33
2019-03-06T04:29:30.617Z,3.19
2019-03-06T04:30:30.546Z,3.16
2019-03-06T04:31:30.544Z,3.23
2019-03-06T04:32:30.533Z,3.20
2019-03-06T04:33:30.518Z,3.25
2019-03-06T04:34:30.508Z,3.25
2019-03-06T04:35:30.552Z,3.23
2019-03-06T04:36:30.490Z,3.31
2019-03-06T04:37:30.474Z,3.28
2019-03-06T04:38:30.460Z,3.28
2019-03-06T04:39:30.453Z,3.37
2019-03-06T04:40:30.459Z,3.34
2019-03-06T04:41:30.448Z,3.42
2019-03-06T04:42:30.419Z,3.39
2019-03-06T04:43:30.403Z,3.49
2019-03-06T04:44:30.394Z,3.46
2019-03-06T04:45:30.381Z,3.46
2019-03-06T04:46:30.394Z,3.49
2019-03-06T04:47:30.375Z,3.50
2019-03-06T04:48:30.354Z,3.33
2019-03-06T04:49:30.345Z,3.46
2019-03-06T04:50:30.360Z,3.41
2019-03-06T04:51:30.315Z,3.45
2019-03-06T04:52:30.316Z,3.35
2019-03-06T04:53:30.296Z,3.45
2019-03-06T04:54:30.285Z,3.53
2019-03-06T04:55:30.282Z,3.42
2019-03-06T04:56:30.288Z,3.49
2019-03-06T04:57:30.253Z,3.49
2019-03-06T04:58:30.250Z,3.53
2019-03-06T04:59:30.234Z,3.52
2019-03-06T05:00:30.235Z,3.53
2019-03-06T05:01:30.248Z,3.56
2019-03-06T05:02:30.209Z,3.50
2019-03-06T05:03:30.196Z,3.60
2019-03-06T05:04:30.179Z,3.49
2019-03-06T05:05:30.176Z,3.56
2019-03-06T05:06:30.175Z,3.60
2019-03-06T05:07:30.171Z,3.59
2019-03-06T05:08:30.140Z,3.59
2019-03-06T05:09:30.134Z,3.60
2019-03-06T05:10:30.122Z,3.53
2019-03-06T05:11:30.125Z,3.53
2019-03-06T05:12:30.107Z,3.53
2019-03-06T05:13:30.108Z,3.57
2019-03-06T05:14:30.082Z,3.52
2019-03-06T05:15:30.070Z,3.53
2019-03-06T05:16:30.065Z,3.52
2019-03-06T05:17:30.050Z,3.46
2019-03-06T05:18:30.048Z,3.52
2019-03-06T05:19:30.054Z,3.50
2019-03-06T05:20:30.007Z,3.37
2019-03-06T05:21:29.999Z,3.50
2019-03-06T05:22:29.995Z,3.50
2019-03-06T05:23:29.982Z,3.37
2019-03-06T05:24:29.970Z,3.41
2019-03-06T05:25:29.978Z,3.35
2019-03-06T05:26:29.959Z,3.42
2019-03-06T05:27:29.984Z,3.42
2019-03-06T05:28:29.932Z,3.42
2019-03-06T05:29:29.918Z,3.44
2019-03-06T05:30:29.928Z,3.42
2019-03-06T05:31:29.893Z,3.53
2019-03-06T05:32:29.881Z,3.54
2019-03-06T05:33:29.872Z,3.35
2019-03-06T05:34:29.874Z,3.37
2019-03-06T05:35:29.860Z,3.37
2019-03-06T05:36:29.880Z,3.49
2019-03-06T05:37:29.834Z,3.42
2019-03-06T05:38:29.816Z,3.41
2019-03-06T05:39:29.808Z,3.39
2019-03-06T05:40:29.806Z,3.41
2019-03-06T05:41:29.813Z,3.50
2019-03-06T05:42:29.782Z,3.46
2019-03-06T05:43:29.771Z,3.41
2019-03-06T05:44:29.757Z,3.34
2019-03-06T05:45:29.744Z,3.44
2019-03-06T05:46:29.767Z,3.34
2019-03-06T05:47:29.731Z,3.42
2019-03-06T05:48:29.720Z,3.46
2019-03-06T05:49:29.729Z,3.41
2019-03-06T05:50:29.693Z,3.45
2019-03-06T05:51:29.687Z,3.49
2019-03-06T05:52:29.696Z,3.37
2019-03-06T05:53:29.663Z,3.44
2019-03-06T05:54:29.658Z,3.45
2019-03-06T05:55:29.651Z,3.41
2019-03-06T05:56:29.666Z,3.45
2019-03-06T05:57:29.615Z,3.42
2019-03-06T05:58:29.624Z,3.46
2019-03-06T05:59:29.603Z,3.49
2019-03-06T06:00:29.600Z,3.53
2019-03-06T06:01:29.573Z,3.49
2019-03-06T06:02:29.587Z,3.50
2019-03-06T06:03:29.595Z,3.53
2019-03-06T06:04:29.543Z,3.52
2019-03-06T06:05:29.531Z,3.60
2019-03-06T06:06:29.532Z,3.56
2019-03-06T06:07:29.510Z,3.52
2019-03-06T06:08:29.508Z,3.50
2019-03-06T06:09:29.529Z,3.59
2019-03-06T06:10:29.489Z,3.60
2019-03-06T06:11:29.473Z,3.59
2019-03-06T06:12:29.459Z,3.64
2019-03-06T06:13:30.925Z,3.63
2019-03-06T06:14:29.455Z,3.63
2019-03-06T06:15:29.428Z,3.59
2019-03-06T06:16:29.424Z,3.62
2019-03-06T06:17:29.410Z,3.64
2019-03-06T06:18:29.400Z,3.63
2019-03-06T06:19:29.428Z,3.67
2019-03-06T06:20:29.372Z,3.78
2019-03-06T06:21:29.372Z,3.71
2019-03-06T06:22:29.364Z,3.75
2019-03-06T06:23:29.356Z,3.72
2019-03-06T06:24:29.369Z,3.72
2019-03-06T06:25:29.339Z,3.72
2019-03-06T06:26:29.318Z,3.75
2019-03-06T06:27:29.309Z,3.77
2019-03-06T06:28:29.352Z,3.81
2019-03-06T06:29:29.282Z,3.74
2019-03-06T06:30:29.311Z,3.81
2019-03-06T06:31:29.258Z,3.82
2019-03-06T06:32:29.253Z,3.92
2019-03-06T06:33:29.235Z,3.86
2019-03-06T06:34:29.229Z,3.93
2019-03-06T06:35:29.235Z,3.89
2019-03-06T06:36:29.210Z,3.93
2019-03-06T06:37:29.210Z,3.98
2019-03-06T06:38:29.183Z,4.00
2019-03-06T06:39:29.180Z,4.08
2019-03-06T06:40:29.181Z,4.11
2019-03-06T06:41:29.154Z,4.10
2019-03-06T06:42:29.144Z,4.04
2019-03-06T06:43:29.142Z,4.08
2019-03-06T06:44:29.126Z,4.17
2019-03-06T06:45:29.130Z,4.10
2019-03-06T06:46:29.113Z,4.20
2019-03-06T06:47:29.098Z,4.26
2019-03-06T06:48:29.083Z,4.26
2019-03-06T06:49:29.101Z,4.17
2019-03-06T06:50:29.104Z,4.17
2019-03-06T06:51:29.057Z,4.21
2019-03-06T06:52:29.035Z,4.28
2019-03-06T06:53:29.025Z,4.26
2019-03-06T06:54:29.022Z,4.35
2019-03-06T06:55:29.027Z,4.32
2019-03-06T06:56:29.027Z,4.32
2019-03-06T06:57:28.987Z,4.29
2019-03-06T06:58:31.526Z,4.32
2019-03-06T06:59:28.970Z,4.29
2019-03-06T07:00:28.956Z,4.34
2019-03-06T07:01:28.976Z,4.28
2019-03-06T07:02:28.930Z,4.34
2019-03-06T07:03:28.928Z,4.26
2019-03-06T07:04:28.919Z,4.31
2019-03-06T07:05:28.908Z,4.35
2019-03-06T07:06:28.890Z,4.34
2019-03-06T07:07:28.910Z,4.26
2019-03-06T07:08:28.881Z,4.34
2019-03-06T07:09:28.874Z,4.32
2019-03-06T07:10:28.857Z,4.35
2019-03-06T07:11:28.842Z,4.31
2019-03-06T07:12:28.825Z,4.29
2019-03-06T07:13:28.856Z,4.31
2019-03-06T07:14:28.813Z,4.31
2019-03-06T07:15:28.800Z,4.31
2019-03-06T07:16:28.797Z,4.29
2019-03-06T07:17:28.783Z,4.34
2019-03-06T07:18:28.788Z,4.31
2019-03-06T07:19:28.757Z,4.39
2019-03-06T07:20:28.749Z,4.43
2019-03-06T07:21:28.780Z,4.42
2019-03-06T07:22:28.808Z,4.46
2019-03-06T07:23:28.716Z,4.43
2019-03-06T07:24:28.724Z,4.43
2019-03-06T07:25:28.695Z,4.42
2019-03-06T07:26:28.678Z,4.44
2019-03-06T07:27:28.674Z,4.46
2019-03-06T07:28:28.665Z,4.43
2019-03-06T07:29:28.688Z,4.51
2019-03-06T07:30:28.638Z,4.46
2019-03-06T07:31:28.631Z,4.57
2019-03-06T07:32:28.617Z,4.47
2019-03-06T07:33:28.614Z,4.53
2019-03-06T07:34:28.619Z,4.59
2019-03-06T07:35:28.624Z,4.62
2019-03-06T07:36:28.582Z,4.57
2019-03-06T07:37:29.041Z,4.67
2019-03-06T07:38:28.571Z,4.72
2019-03-06T07:39:28.545Z,4.74
2019-03-06T07:40:28.538Z,4.71
2019-03-06T07:41:28.546Z,4.75
2019-03-06T07:42:28.515Z,4.71
2019-03-06T07:43:28.524Z,4.75
2019-03-06T07:44:30.494Z,4.68
2019-03-06T07:45:28.488Z,4.83
2019-03-06T07:46:28.509Z,4.86
2019-03-06T07:47:28.460Z,4.79
2019-03-06T07:48:28.456Z,4.72
2019-03-06T07:49:28.437Z,4.87
2019-03-06T07:50:28.437Z,4.87
2019-03-06T07:51:28.424Z,4.97
2019-03-06T07:52:28.459Z,4.79
2019-03-06T07:53:28.401Z,4.91
2019-03-06T07:54:28.399Z,4.97
2019-03-06T07:55:28.380Z,5.02
2019-03-06T07:56:28.382Z,4.97
2019-03-06T07:57:28.376Z,5.01
2019-03-06T07:58:28.350Z,4.99
2019-03-06T07:59:28.334Z,4.99
2019-03-06T08:00:28.326Z,5.01
2019-03-06T08:01:28.327Z,4.91
2019-03-06T08:02:28.310Z,4.99
2019-03-06T08:03:28.310Z,5.02
2019-03-06T08:04:28.287Z,5.09
2019-03-06T08:05:28.278Z,4.96
2019-03-06T08:06:28.273Z,5.09
2019-03-06T08:07:28.267Z,5.05
2019-03-06T08:08:28.274Z,4.96
2019-03-06T08:09:28.227Z,5.04
2019-03-06T08:10:28.228Z,5.08
2019-03-06T08:11:28.207Z,4.97
2019-03-06T08:12:28.200Z,4.99
2019-03-06T08:13:28.197Z,5.04
2019-03-06T08:14:28.197Z,4.94
2019-03-06T08:15:28.184Z,5.02
2019-03-06T08:16:28.160Z,5.06
2019-03-06T08:17:28.142Z,5.05
2019-03-06T08:18:28.160Z,5.04
2019-03-06T08:19:28.131Z,5.12
2019-03-06T08:20:28.125Z,5.04
2019-03-06T08:21:28.109Z,5.12
2019-03-06T08:22:28.091Z,5.09
2019-03-06T08:23:28.089Z,5.11
2019-03-06T08:24:28.096Z,5.09
2019-03-06T08:25:28.106Z,5.12
2019-03-06T08:26:28.057Z,5.12
2019-03-06T08:27:28.055Z,5.20
2019-03-06T08:28:28.043Z,5.15
2019-03-06T08:29:28.017Z,5.17
2019-03-06T08:30:28.030Z,5.23
2019-03-06T08:31:28.001Z,5.19
2019-03-06T08:32:27.986Z,5.29
2019-03-06T08:33:27.977Z,5.26
2019-03-06T08:34:27.979Z,5.27
2019-03-06T08:35:27.979Z,5.29
2019-03-06T08:36:27.942Z,5.23
2019-03-06T08:37:27.938Z,5.27
2019-03-06T08:38:27.930Z,5.29
2019-03-06T08:39:27.911Z,5.29
2019-03-06T08:40:27.919Z,5.23
2019-03-06T08:41:27.920Z,5.38
2019-03-06T08:42:27.886Z,5.24
2019-03-06T08:43:27.907Z,5.35
2019-03-06T08:44:27.872Z,5.41
2019-03-06T08:45:27.885Z,5.42
2019-03-06T08:46:27.860Z,5.41
2019-03-06T08:47:27.850Z,5.44
2019-03-06T08:48:27.822Z,5.41
2019-03-06T08:49:27.815Z,5.49
2019-03-06T08:50:27.803Z,5.49
2019-03-06T08:51:27.791Z,5.49
2019-03-06T08:52:27.800Z,5.60
2019-03-06T08:53:27.768Z,5.63
2019-03-06T08:54:27.802Z,5.67
2019-03-06T08:55:27.764Z,5.59
2019-03-06T08:56:27.746Z,5.69
2019-03-06T08:57:27.722Z,5.66
2019-03-06T08:58:27.775Z,5.67
2019-03-06T08:59:27.697Z,5.77
2019-03-06T09:00:27.687Z,5.70
2019-03-06T09:01:27.691Z,5.69
2019-03-06T09:02:27.665Z,5.83
2019-03-06T09:03:27.653Z,5.80
2019-03-06T09:04:27.676Z,5.87
2019-03-06T09:05:27.631Z,5.93
2019-03-06T09:06:27.634Z,5.99
2019-03-06T09:07:27.609Z,5.99
2019-03-06T09:08:27.607Z,5.96
2019-03-06T09:09:27.621Z,5.95
2019-03-06T09:10:27.608Z,6.01
2019-03-06T09:11:27.569Z,6.02
2019-03-06T09:12:27.570Z,6.16
2019-03-06T09:13:27.552Z,6.13
2019-03-06T09:14:27.565Z,6.21
2019-03-06T09:15:27.535Z,6.19
2019-03-06T09:16:27.522Z,6.14
2019-03-06T09:17:27.513Z,6.21
2019-03-06T09:18:27.502Z,6.32
2019-03-06T09:19:27.497Z,6.24
2019-03-06T09:20:36.027Z,6.28
2019-03-06T09:21:28.467Z,6.30
2019-03-06T09:22:27.459Z,6.40
2019-03-06T09:23:27.442Z,6.51
2019-03-06T09:24:27.427Z,6.40
2019-03-06T09:25:27.425Z,6.42
2019-03-06T09:26:27.440Z,6.50
2019-03-06T09:27:27.406Z,6.58
2019-03-06T09:28:27.386Z,6.57
2019-03-06T09:29:27.377Z,6.65
2019-03-06T09:30:27.369Z,6.65
2019-03-06T09:31:27.361Z,6.71
2019-03-06T09:32:27.365Z,6.71
2019-03-06T09:33:27.332Z,6.65
2019-03-06T09:34:28.299Z,6.68
2019-03-06T09:35:27.309Z,6.75
2019-03-06T09:36:27.296Z,6.90
2019-03-06T09:37:27.305Z,6.86
2019-03-06T09:38:27.295Z,6.82
2019-03-06T09:39:27.265Z,6.87
2019-03-06T09:40:27.254Z,6.99
2019-03-06T09:41:27.247Z,6.96
2019-03-06T09:42:27.245Z,6.97
2019-03-06T09:43:27.246Z,6.99
2019-03-06T09:44:27.219Z,6.97
2019-03-06T09:45:27.198Z,7.11
2019-03-06T09:46:27.193Z,7.00
2019-03-06T09:47:27.176Z,7.04
2019-03-06T09:48:27.215Z,7.12
2019-03-06T09:49:27.187Z,7.15
2019-03-06T09:50:27.147Z,7.23
2019-03-06T09:51:27.139Z,7.14
2019-03-06T09:52:27.121Z,7.24
2019-03-06T09:53:27.118Z,7.24
2019-03-06T09:54:27.125Z,7.34
2019-03-06T09:55:27.094Z,7.29
2019-03-06T09:56:27.105Z,7.37
2019-03-06T09:57:27.074Z,7.39
2019-03-06T09:58:27.054Z,7.36
2019-03-06T09:59:27.051Z,7.37
2019-03-06T10:00:27.069Z,7.47
2019-03-06T10:01:27.028Z,7.48
2019-03-06T10:02:27.026Z,7.47
2019-03-06T10:03:27.008Z,7.47
2019-03-06T10:04:27.005Z,7.34
2019-03-06T10:05:26.982Z,7.52
2019-03-06T10:06:26.998Z,7.52
2019-03-06T10:07:26.958Z,7.63
2019-03-06T10:08:26.960Z,7.62
2019-03-06T10:09:26.969Z,7.74
2019-03-06T10:10:26.921Z,7.79
2019-03-06T10:11:26.944Z,7.81
2019-03-06T10:12:26.911Z,7.85
2019-03-06T10:13:26.924Z,7.86
2019-03-06T10:14:26.881Z,7.85
2019-03-06T10:15:26.877Z,7.91
2019-03-06T10:16:26.858Z,7.94
2019-03-06T10:17:26.865Z,7.89
2019-03-06T10:18:26.973Z,7.82
2019-03-06T10:19:26.831Z,7.91
2019-03-06T10:20:26.812Z,7.86
2019-03-06T10:21:26.858Z,7.94
2019-03-06T10:22:26.796Z,7.99
2019-03-06T10:23:26.789Z,8.07
2019-03-06T10:24:26.786Z,8.03
2019-03-06T10:25:30.164Z,8.03
2019-03-06T10:26:28.887Z,8.04
2019-03-06T10:27:26.736Z,8.07
2019-03-06T10:28:27.970Z,8.14
2019-03-06T10:29:26.777Z,8.17
2019-03-06T10:30:26.717Z,8.24
2019-03-06T10:31:26.697Z,8.18
2019-03-06T10:32:26.729Z,8.17
2019-03-06T10:33:26.701Z,8.25
2019-03-06T10:34:26.664Z,8.28
2019-03-06T10:35:26.650Z,8.36
2019-03-06T10:36:26.647Z,8.28
2019-03-06T10:37:26.641Z,8.29
2019-03-06T10:38:26.637Z,8.42
2019-03-06T10:39:26.610Z,8.31
2019-03-06T10:40:26.589Z,8.36
2019-03-06T10:41:26.582Z,8.39
2019-03-06T10:42:26.587Z,8.43
2019-03-06T10:43:26.582Z,8.45
2019-03-06T10:44:29.785Z,8.47
2019-03-06T10:45:26.610Z,8.40
2019-03-06T10:46:26.526Z,8.52
2019-03-06T10:47:26.513Z,8.43
2019-03-06T10:48:26.538Z,8.46
2019-03-06T10:49:26.519Z,8.43
2019-03-06T10:50:28.000Z,8.61
2019-03-06T10:51:27.481Z,8.55
2019-03-06T10:52:26.473Z,8.54
2019-03-06T10:53:26.473Z,8.64
2019-03-06T10:54:26.465Z,8.61
2019-03-06T10:55:26.435Z,8.64
2019-03-06T10:56:26.424Z,8.65
2019-03-06T10:57:26.406Z,8.78
2019-03-06T10:58:26.408Z,8.78
2019-03-06T10:59:26.380Z,8.88
2019-03-06T11:00:26.379Z,8.80
2019-03-06T11:01:26.363Z,8.89
2019-03-06T11:02:26.362Z,8.94
2019-03-06T11:03:26.363Z,8.97
2019-03-06T11:04:26.344Z,8.97
2019-03-06T11:05:26.329Z,9.00
2019-03-06T11:06:26.312Z,9.12
2019-03-06T11:07:26.292Z,9.13
2019-03-06T11:08:26.282Z,9.13
2019-03-06T11:09:26.304Z,9.16
2019-03-06T11:10:26.699Z,9.17
2019-03-06T11:11:26.257Z,9.19
2019-03-06T11:12:26.247Z,9.20
2019-03-06T11:13:26.254Z,9.27
2019-03-06T11:14:26.247Z,9.32
2019-03-06T11:15:26.216Z,9.38
2019-03-06T11:16:26.200Z,9.40
2019-03-06T11:17:26.202Z,9.40
2019-03-06T11:18:26.207Z,9.50
2019-03-06T11:19:26.172Z,9.53
2019-03-06T11:20:26.158Z,9.59
2019-03-06T11:21:26.145Z,9.63
2019-03-06T11:22:26.142Z,9.63
2019-03-06T11:23:26.152Z,9.67
2019-03-06T11:24:26.113Z,9.62
2019-03-06T11:25:26.096Z,9.70
2019-03-06T11:26:26.087Z,9.71
2019-03-06T11:27:26.075Z,9.67
2019-03-06T11:28:26.073Z,9.60
2019-03-06T11:29:26.104Z,9.75
2019-03-06T11:30:26.058Z,9.71
2019-03-06T11:31:26.041Z,9.78
2019-03-06T11:32:26.020Z,9.67
2019-03-06T11:33:26.011Z,9.73
2019-03-06T11:34:26.021Z,9.86
2019-03-06T11:35:26.001Z,9.74
2019-03-06T11:36:25.981Z,9.74
2019-03-06T11:37:25.971Z,9.77
2019-03-06T11:38:25.955Z,9.88
2019-03-06T11:39:25.951Z,9.92
2019-03-06T11:40:25.964Z,9.93
2019-03-06T11:41:25.951Z,9.92
2019-03-06T11:42:25.922Z,9.95
2019-03-06T11:43:25.918Z,9.93
2019-03-06T11:44:25.897Z,10.02
2019-03-06T11:45:25.886Z,10.04
2019-03-06T11:46:25.905Z,10.04
2019-03-06T11:47:25.867Z,10.07
2019-03-06T11:48:25.862Z,10.11
2019-03-06T11:49:25.841Z,10.06
2019-03-06T11:50:25.827Z,10.11
2019-03-06T11:51:25.850Z,10.09
2019-03-06T11:52:25.813Z,10.06
2019-03-06T11:53:25.793Z,10.10
2019-03-06T11:54:25.814Z,10.13
2019-03-06T11:55:25.786Z,10.25
2019-03-06T11:56:25.772Z,10.34
2019-03-06T11:57:25.773Z,10.20
2019-03-06T11:58:25.749Z,10.31
2019-03-06T11:59:25.732Z,10.29
2019-03-06T12:00:25.725Z,10.32
2019-03-06T12:01:25.844Z,10.35
2019-03-06T12:02:25.712Z,10.28
2019-03-06T12:03:25.762Z,10.43
2019-03-06T12:04:25.682Z,10.39
2019-03-06T12:05:25.683Z,10.46
2019-03-06T12:06:25.699Z,10.49
2019-03-06T12:07:25.658Z,10.44
2019-03-06T12:08:25.664Z,10.46
2019-03-06T12:09:25.669Z,10.49
2019-03-06T12:10:25.624Z,10.52
2019-03-06T12:11:25.609Z,10.39
2019-03-06T12:12:25.593Z,10.46
2019-03-06T12:13:25.674Z,10.46
2019-03-06T12:14:25.575Z,10.49
2019-03-06T12:15:25.648Z,10.43
2019-03-06T12:16:25.553Z,10.49
2019-03-06T12:17:25.543Z,10.42
2019-03-06T12:18:25.537Z,10.46
2019-03-06T12:19:25.539Z,10.43
2019-03-06T12:20:25.513Z,10.47
2019-03-06T12:21:25.525Z,10.47
2019-03-06T12:22:25.488Z,10.44
2019-03-06T12:23:25.586Z,10.46
2019-03-06T12:24:25.468Z,10.47
2019-03-06T12:25:25.455Z,10.38
2019-03-06T12:26:25.444Z,10.35
2019-03-06T12:27:25.446Z,10.34
2019-03-06T12:28:25.416Z,10.34
2019-03-06T12:29:25.432Z,10.35
2019-03-06T12:30:25.423Z,10.38
2019-03-06T12:31:25.389Z,10.35
2019-03-06T12:32:27.188Z,10.34
2019-03-06T12:33:25.367Z,10.29
2019-03-06T12:34:25.375Z,10.24
2019-03-06T12:35:25.356Z,10.31
2019-03-06T12:36:25.352Z,10.25
2019-03-06T12:37:25.324Z,10.25
2019-03-06T12:38:25.314Z,10.32
2019-03-06T12:39:25.316Z,10.34
2019-03-06T12:40:25.317Z,10.39
2019-03-06T12:41:25.285Z,10.29
2019-03-06T12:42:25.287Z,10.26
2019-03-06T12:43:25.265Z,10.29
2019-03-06T12:44:25.270Z,10.29
2019-03-06T12:45:27.153Z,10.29
2019-03-06T12:46:25.238Z,10.31
2019-03-06T12:47:25.270Z,10.31
2019-03-06T12:48:25.204Z,10.34
2019-03-06T12:49:25.195Z,10.34
2019-03-06T12:50:25.201Z,10.39
2019-03-06T12:51:25.202Z,10.35
2019-03-06T12:52:25.165Z,10.29
2019-03-06T12:53:25.150Z,10.43
2019-03-06T12:54:25.178Z,10.43
2019-03-06T12:55:25.144Z,10.44
2019-03-06T12:56:25.115Z,10.49
2019-03-06T12:57:25.108Z,10.47
2019-03-06T12:58:25.094Z,10.47
2019-03-06T12:59:25.112Z,10.47
2019-03-06T13:00:25.114Z,10.47
2019-03-06T13:01:25.072Z,10.52
2019-03-06T13:02:25.057Z,10.52
2019-03-06T13:03:25.047Z,10.54
2019-03-06T13:04:25.032Z,10.65
2019-03-06T13:05:25.052Z,10.58
2019-03-06T13:06:25.387Z,10.58
2019-03-06T13:07:25.005Z,10.51
2019-03-06T13:08:25.004Z,10.51
2019-03-06T13:09:24.985Z,10.47
2019-03-06T13:10:24.979Z,10.52
2019-03-06T13:11:24.986Z,10.42
2019-03-06T13:12:24.953Z,10.43
2019-03-06T13:13:35.052Z,10.46
2019-03-06T13:14:25.937Z,10.46
2019-03-06T13:15:24.924Z,10.47